sensor_id;sensor_type;location;lat;lon;timestamp;pressure;altitude;pressure_sealevel;temperature;humidity
33404;BME280;19751;40.274;18.268;2023-07-22T00:00:29;100673.94;;;31.54;60.25
33404;BME280;19751;40.274;18.268;2023-07-22T00:02:55;100666.72;;;31.53;62.71
33404;BME280;19751;40.274;18.268;2023-07-22T00:05:21;100672.13;;;31.50;65.19
33404;BME280;19751;40.274;18.268;2023-07-22T00:07:51;100670.81;;;31.47;67.17
33404;BME280;19751;40.274;18.268;2023-07-22T00:10:17;100667.22;;;31.47;69.20
33404;BME280;19751;40.274;18.268;2023-07-22T00:12:42;100667.22;;;31.47;71.54
33404;BME280;19751;40.274;18.268;2023-07-22T00:15:08;100670.34;;;31.45;74.08
33404;BME280;19751;40.274;18.268;2023-07-22T00:17:38;100676.59;;;31.42;76.03
33404;BME280;19751;40.274;18.268;2023-07-22T00:20:06;100671.19;;;31.37;78.98
33404;BME280;19751;40.274;18.268;2023-07-22T00:22:32;100673.81;;;31.33;80.66
33404;BME280;19751;40.274;18.268;2023-07-22T00:24:58;100670.38;;;31.28;82.66
33404;BME280;19751;40.274;18.268;2023-07-22T00:27:26;100661.72;;;31.20;84.22
33404;BME280;19751;40.274;18.268;2023-07-22T00:29:51;100663.69;;;31.20;84.95
33404;BME280;19751;40.274;18.268;2023-07-22T00:32:17;100657.94;;;31.16;86.14
33404;BME280;19751;40.274;18.268;2023-07-22T00:34:43;100657.94;;;31.16;87.38
33404;BME280;19751;40.274;18.268;2023-07-22T00:37:08;100663.00;;;31.14;87.79
33404;BME280;19751;40.274;18.268;2023-07-22T00:39:34;100654.66;;;31.14;88.05
33404;BME280;19751;40.274;18.268;2023-07-22T00:41:59;100649.44;;;31.13;88.47
33404;BME280;19751;40.274;18.268;2023-07-22T00:44:25;100651.41;;;31.12;88.70
33404;BME280;19751;40.274;18.268;2023-07-22T00:46:53;100653.53;;;31.15;88.35
33404;BME280;19751;40.274;18.268;2023-07-22T00:49:22;100657.13;;;31.16;88.54
33404;BME280;19751;40.274;18.268;2023-07-22T00:51:49;100651.56;;;31.16;88.02
33404;BME280;19751;40.274;18.268;2023-07-22T00:54:14;100657.28;;;31.19;88.46
33404;BME280;19751;40.274;18.268;2023-07-22T00:56:40;100655.63;;;31.18;89.49
33404;BME280;19751;40.274;18.268;2023-07-22T00:59:07;100650.91;;;31.19;90.58
33404;BME280;19751;40.274;18.268;2023-07-22T01:01:35;100653.34;;;31.20;91.23
33404;BME280;19751;40.274;18.268;2023-07-22T01:04:04;100650.56;;;31.20;92.24
33404;BME280;19751;40.274;18.268;2023-07-22T01:06:31;100640.59;;;31.19;92.67
33404;BME280;19751;40.274;18.268;2023-07-22T01:08:57;100651.72;;;31.19;92.79
33404;BME280;19751;40.274;18.268;2023-07-22T01:11:24;100646.97;;;31.20;92.73
33404;BME280;19751;40.274;18.268;2023-07-22T01:13:51;100649.25;;;31.18;92.94
33404;BME280;19751;40.274;18.268;2023-07-22T01:16:17;100647.63;;;31.17;93.58
33404;BME280;19751;40.274;18.268;2023-07-22T01:18:43;100649.09;;;31.14;94.13
33404;BME280;19751;40.274;18.268;2023-07-22T01:21:09;100644.38;;;31.15;95.23
33404;BME280;19751;40.274;18.268;2023-07-22T01:23:36;100645.03;;;31.12;95.83
33404;BME280;19751;40.274;18.268;2023-07-22T01:26:02;100644.88;;;31.08;96.47
33404;BME280;19751;40.274;18.268;2023-07-22T01:28:28;100647.50;;;31.05;97.66
33404;BME280;19751;40.274;18.268;2023-07-22T01:30:54;100648.66;;;31.04;98.13
33404;BME280;19751;40.274;18.268;2023-07-22T01:33:20;100646.69;;;31.04;98.69
33404;BME280;19751;40.274;18.268;2023-07-22T01:35:46;100649.28;;;31.01;98.67
33404;BME280;19751;40.274;18.268;2023-07-22T01:38:11;100649.94;;;30.98;98.72
33404;BME280;19751;40.274;18.268;2023-07-22T01:40:37;100648.66;;;30.95;99.28
33404;BME280;19751;40.274;18.268;2023-07-22T01:43:03;100647.19;;;30.89;99.25
33404;BME280;19751;40.274;18.268;2023-07-22T01:45:29;100649.31;;;30.92;98.71
33404;BME280;19751;40.274;18.268;2023-07-22T01:47:54;100645.72;;;30.91;98.45
33404;BME280;19751;40.274;18.268;2023-07-22T01:50:20;100658.31;;;30.89;98.32
33404;BME280;19751;40.274;18.268;2023-07-22T01:52:45;100653.72;;;30.84;98.51
33404;BME280;19751;40.274;18.268;2023-07-22T01:55:14;100651.59;;;30.81;99.23
33404;BME280;19751;40.274;18.268;2023-07-22T01:57:40;100653.56;;;30.81;99.63
33404;BME280;19751;40.274;18.268;2023-07-22T02:00:06;100654.25;;;30.78;100.00
33404;BME280;19751;40.274;18.268;2023-07-22T02:02:33;100663.69;;;30.77;100.00
33404;BME280;19751;40.274;18.268;2023-07-22T02:05:00;100659.28;;;30.76;100.00
33404;BME280;19751;40.274;18.268;2023-07-22T02:07:25;100658.47;;;30.75;100.00
33404;BME280;19751;40.274;18.268;2023-07-22T02:09:51;100658.47;;;30.75;100.00
33404;BME280;19751;40.274;18.268;2023-07-22T02:12:17;100660.09;;;30.76;100.00
33404;BME280;19751;40.274;18.268;2023-07-22T02:14:43;100657.97;;;30.73;100.00
33404;BME280;19751;40.274;18.268;2023-07-22T02:17:09;100656.66;;;30.70;100.00
33404;BME280;19751;40.274;18.268;2023-07-22T02:19:36;100654.69;;;30.71;100.00
33404;BME280;19751;40.274;18.268;2023-07-22T02:22:03;100654.06;;;30.74;100.00
33404;BME280;19751;40.274;18.268;2023-07-22T02:24:30;100655.34;;;30.77;100.00
33404;BME280;19751;40.274;18.268;2023-07-22T02:26:55;100660.44;;;30.75;100.00
33404;BME280;19751;40.274;18.268;2023-07-22T02:29:21;100655.66;;;30.66;100.00
33404;BME280;19751;40.274;18.268;2023-07-22T02:31:46;100662.03;;;30.58;100.00
33404;BME280;19751;40.274;18.268;2023-07-22T02:34:12;100661.69;;;30.51;100.00
33404;BME280;19751;40.274;18.268;2023-07-22T02:36:37;100656.94;;;30.43;100.00
33404;BME280;19751;40.274;18.268;2023-07-22T02:39:03;100664.31;;;30.39;100.00
33404;BME280;19751;40.274;18.268;2023-07-22T02:41:29;100669.19;;;30.33;100.00
33404;BME280;19751;40.274;18.268;2023-07-22T02:43:54;100656.28;;;30.29;100.00
33404;BME280;19751;40.274;18.268;2023-07-22T02:46:20;100670.34;;;30.24;100.00
33404;BME280;19751;40.274;18.268;2023-07-22T02:48:46;100671.28;;;30.19;100.00
33404;BME280;19751;40.274;18.268;2023-07-22T02:51:11;100678.09;;;30.13;100.00
33404;BME280;19751;40.274;18.268;2023-07-22T02:53:37;100680.53;;;30.06;100.00
33404;BME280;19751;40.274;18.268;2023-07-22T02:56:07;100674.66;;;29.99;100.00
33404;BME280;19751;40.274;18.268;2023-07-22T02:58:33;100675.25;;;29.87;100.00
33404;BME280;19751;40.274;18.268;2023-07-22T03:00:59;100678.28;;;29.77;100.00
33404;BME280;19751;40.274;18.268;2023-07-22T03:03:25;100681.19;;;29.63;100.00
33404;BME280;19751;40.274;18.268;2023-07-22T03:05:51;100680.59;;;29.52;100.00
33404;BME280;19751;40.274;18.268;2023-07-22T03:08:18;100689.19;;;29.42;100.00
33404;BME280;19751;40.274;18.268;2023-07-22T03:10:44;100686.88;;;29.35;100.00
33404;BME280;19751;40.274;18.268;2023-07-22T03:13:15;100680.44;;;29.26;100.00
33404;BME280;19751;40.274;18.268;2023-07-22T03:15:41;100683.09;;;29.31;100.00
33404;BME280;19751;40.274;18.268;2023-07-22T03:18:06;100695.69;;;29.37;100.00
33404;BME280;19751;40.274;18.268;2023-07-22T03:20:32;100692.47;;;29.44;100.00
33404;BME280;19751;40.274;18.268;2023-07-22T03:22:58;100693.13;;;29.41;100.00
33404;BME280;19751;40.274;18.268;2023-07-22T03:25:24;100694.56;;;29.38;100.00
33404;BME280;19751;40.274;18.268;2023-07-22T03:27:50;100698.78;;;29.36;100.00
33404;BME280;19751;40.274;18.268;2023-07-22T03:30:17;100696.00;;;29.36;100.00
33404;BME280;19751;40.274;18.268;2023-07-22T03:32:47;100695.50;;;29.34;100.00
33404;BME280;19751;40.274;18.268;2023-07-22T03:35:16;100699.72;;;29.31;100.00
33404;BME280;19751;40.274;18.268;2023-07-22T03:37:43;100699.53;;;29.28;100.00
33404;BME280;19751;40.274;18.268;2023-07-22T03:40:09;100711.16;;;29.30;100.00
33404;BME280;19751;40.274;18.268;2023-07-22T03:42:53;100715.06;;;29.29;100.00
33404;BME280;19751;40.274;18.268;2023-07-22T03:45:19;100718.94;;;29.28;100.00
33404;BME280;19751;40.274;18.268;2023-07-22T03:47:46;100718.78;;;29.24;100.00
33404;BME280;19751;40.274;18.268;2023-07-22T03:50:13;100724.75;;;29.17;100.00
33404;BME280;19751;40.274;18.268;2023-07-22T03:52:38;100713.00;;;29.12;100.00
33404;BME280;19751;40.274;18.268;2023-07-22T03:55:04;100720.47;;;29.11;100.00
33404;BME280;19751;40.274;18.268;2023-07-22T03:57:31;100722.22;;;29.07;100.00
33404;BME280;19751;40.274;18.268;2023-07-22T03:59:57;100714.69;;;28.99;100.00
33404;BME280;19751;40.274;18.268;2023-07-22T04:02:23;100713.75;;;28.90;100.00
33404;BME280;19751;40.274;18.268;2023-07-22T04:04:51;100715.19;;;28.87;100.00
33404;BME280;19751;40.274;18.268;2023-07-22T04:07:16;100721.25;;;28.89;100.00
33404;BME280;19751;40.274;18.268;2023-07-22T04:09:42;100729.75;;;28.93;100.00
33404;BME280;19751;40.274;18.268;2023-07-22T04:12:08;100728.63;;;28.94;100.00
33404;BME280;19751;40.274;18.268;2023-07-22T04:14:33;100736.34;;;28.97;100.00
33404;BME280;19751;40.274;18.268;2023-07-22T04:16:59;100737.69;;;29.00;100.00
33404;BME280;19751;40.274;18.268;2023-07-22T04:19:25;100733.44;;;29.02;100.00
33404;BME280;19751;40.274;18.268;2023-07-22T04:21:50;100741.16;;;29.05;100.00
33404;BME280;19751;40.274;18.268;2023-07-22T04:24:16;100747.72;;;29.09;100.00
33404;BME280;19751;40.274;18.268;2023-07-22T04:26:42;100746.28;;;29.12;100.00
33404;BME280;19751;40.274;18.268;2023-07-22T04:29:08;100748.91;;;29.17;100.00
33404;BME280;19751;40.274;18.268;2023-07-22T04:31:34;100745.81;;;29.18;100.00
33404;BME280;19751;40.274;18.268;2023-07-22T04:34:00;100751.88;;;29.20;100.00
33404;BME280;19751;40.274;18.268;2023-07-22T04:36:25;100747.63;;;29.23;100.00
33404;BME280;19751;40.274;18.268;2023-07-22T04:38:51;100751.75;;;29.26;100.00
33404;BME280;19751;40.274;18.268;2023-07-22T04:41:16;100750.31;;;29.28;100.00
33404;BME280;19751;40.274;18.268;2023-07-22T04:43:42;100758.31;;;29.30;100.00
33404;BME280;19751;40.274;18.268;2023-07-22T04:46:08;100756.03;;;29.32;100.00
33404;BME280;19751;40.274;18.268;2023-07-22T04:48:34;100760.13;;;29.34;100.00
33404;BME280;19751;40.274;18.268;2023-07-22T04:51:00;100761.75;;;29.35;100.00
33404;BME280;19751;40.274;18.268;2023-07-22T04:53:25;100768.03;;;29.41;100.00
33404;BME280;19751;40.274;18.268;2023-07-22T04:55:51;100767.91;;;29.46;100.00
33404;BME280;19751;40.274;18.268;2023-07-22T04:58:16;100769.91;;;29.54;100.00
33404;BME280;19751;40.274;18.268;2023-07-22T05:00:42;100775.53;;;29.63;100.00
33404;BME280;19751;40.274;18.268;2023-07-22T05:03:08;100779.94;;;29.64;100.00
33404;BME280;19751;40.274;18.268;2023-07-22T05:05:34;100781.63;;;29.73;100.00
33404;BME280;19751;40.274;18.268;2023-07-22T05:08:01;100776.16;;;29.82;100.00
33404;BME280;19751;40.274;18.268;2023-07-22T05:10:27;100779.63;;;29.88;100.00
33404;BME280;19751;40.274;18.268;2023-07-22T05:12:54;100785.53;;;29.95;100.00
33404;BME280;19751;40.274;18.268;2023-07-22T05:15:20;100791.44;;;30.02;100.00
33404;BME280;19751;40.274;18.268;2023-07-22T05:17:46;100793.78;;;30.09;100.00
33404;BME280;19751;40.274;18.268;2023-07-22T05:20:12;100791.56;;;30.19;100.00
33404;BME280;19751;40.274;18.268;2023-07-22T05:22:39;100795.50;;;30.27;100.00
33404;BME280;19751;40.274;18.268;2023-07-22T05:25:05;100798.00;;;30.37;100.00
33404;BME280;19751;40.274;18.268;2023-07-22T05:27:32;100795.25;;;30.46;100.00
33404;BME280;19751;40.274;18.268;2023-07-22T05:29:57;100796.44;;;30.54;100.00
33404;BME280;19751;40.274;18.268;2023-07-22T05:32:23;100803.97;;;30.62;100.00
33404;BME280;19751;40.274;18.268;2023-07-22T05:34:49;100792.06;;;30.70;100.00
33404;BME280;19751;40.274;18.268;2023-07-22T05:37:14;100793.56;;;30.76;100.00
33404;BME280;19751;40.274;18.268;2023-07-22T05:39:40;100791.47;;;30.82;100.00
33404;BME280;19751;40.274;18.268;2023-07-22T05:42:06;100794.91;;;30.87;100.00
33404;BME280;19751;40.274;18.268;2023-07-22T05:44:31;100803.25;;;30.96;100.00
33404;BME280;19751;40.274;18.268;2023-07-22T05:46:57;100804.75;;;31.02;100.00
33404;BME280;19751;40.274;18.268;2023-07-22T05:49:23;100814.22;;;31.10;100.00
33404;BME280;19751;40.274;18.268;2023-07-22T05:51:48;100807.38;;;31.16;100.00
33404;BME280;19751;40.274;18.268;2023-07-22T05:54:14;100806.38;;;31.20;100.00
33404;BME280;19751;40.274;18.268;2023-07-22T05:56:40;100805.75;;;31.24;100.00
33404;BME280;19751;40.274;18.268;2023-07-22T05:59:06;100796.25;;;31.33;100.00
33404;BME280;19751;40.274;18.268;2023-07-22T06:01:32;100787.44;;;31.40;100.00
33404;BME280;19751;40.274;18.268;2023-07-22T06:03:58;100794.13;;;31.48;100.00
33404;BME280;19751;40.274;18.268;2023-07-22T06:06:23;100785.63;;;31.53;100.00
33404;BME280;19751;40.274;18.268;2023-07-22T06:08:49;100786.25;;;31.58;100.00
33404;BME280;19751;40.274;18.268;2023-07-22T06:11:14;100780.50;;;31.63;100.00
33404;BME280;19751;40.274;18.268;2023-07-22T06:13:40;100782.63;;;31.66;100.00
33404;BME280;19751;40.274;18.268;2023-07-22T06:16:06;100780.66;;;31.76;100.00
33404;BME280;19751;40.274;18.268;2023-07-22T06:18:33;100784.91;;;31.82;100.00
33404;BME280;19751;40.274;18.268;2023-07-22T06:20:58;100791.47;;;31.86;100.00
33404;BME280;19751;40.274;18.268;2023-07-22T06:23:24;100789.94;;;31.97;100.00
33404;BME280;19751;40.274;18.268;2023-07-22T06:25:50;100798.63;;;32.04;99.39
33404;BME280;19751;40.274;18.268;2023-07-22T06:28:15;100802.19;;;32.13;99.37
33404;BME280;19751;40.274;18.268;2023-07-22T06:30:41;100792.81;;;32.18;99.20
33404;BME280;19751;40.274;18.268;2023-07-22T06:33:06;100807.06;;;32.25;98.47
33404;BME280;19751;40.274;18.268;2023-07-22T06:35:32;100805.38;;;32.33;97.15
33404;BME280;19751;40.274;18.268;2023-07-22T06:37:57;100807.16;;;32.37;97.06
33404;BME280;19751;40.274;18.268;2023-07-22T06:40:24;100806.34;;;32.46;96.45
33404;BME280;19751;40.274;18.268;2023-07-22T06:42:50;100810.25;;;32.53;95.12
33404;BME280;19751;40.274;18.268;2023-07-22T06:45:17;100805.28;;;32.59;92.56
33404;BME280;19751;40.274;18.268;2023-07-22T06:47:42;100815.91;;;32.65;90.76
33404;BME280;19751;40.274;18.268;2023-07-22T06:50:09;100808.31;;;32.75;89.96
33404;BME280;19751;40.274;18.268;2023-07-22T06:52:35;100812.41;;;32.77;89.54
33404;BME280;19751;40.274;18.268;2023-07-22T06:55:00;100813.50;;;32.85;87.57
33404;BME280;19751;40.274;18.268;2023-07-22T06:57:26;100806.75;;;32.95;84.69
33404;BME280;19751;40.274;18.268;2023-07-22T06:59:55;100820.28;;;33.05;81.15
33404;BME280;19751;40.274;18.268;2023-07-22T07:02:21;100820.22;;;33.13;73.70
33404;BME280;19751;40.274;18.268;2023-07-22T07:04:47;100820.84;;;33.19;72.41
33404;BME280;19751;40.274;18.268;2023-07-22T07:07:13;100817.50;;;33.26;67.54
33404;BME280;19751;40.274;18.268;2023-07-22T07:09:39;100828.94;;;33.33;61.84
33404;BME280;19751;40.274;18.268;2023-07-22T07:12:06;100836.59;;;33.45;55.55
33404;BME280;19751;40.274;18.268;2023-07-22T07:14:32;100841.06;;;33.58;54.46
33404;BME280;19751;40.274;18.268;2023-07-22T07:16:58;100842.50;;;33.64;52.32
33404;BME280;19751;40.274;18.268;2023-07-22T07:19:24;100837.03;;;33.68;51.91
33404;BME280;19751;40.274;18.268;2023-07-22T07:21:50;100848.00;;;33.73;52.12
33404;BME280;19751;40.274;18.268;2023-07-22T07:24:15;100844.31;;;33.81;46.48
33404;BME280;19751;40.274;18.268;2023-07-22T07:26:41;100846.06;;;33.85;46.11
33404;BME280;19751;40.274;18.268;2023-07-22T07:29:07;100849.00;;;33.89;46.31
33404;BME280;19751;40.274;18.268;2023-07-22T07:31:33;100856.34;;;33.94;47.10
33404;BME280;19751;40.274;18.268;2023-07-22T07:33:58;100855.78;;;34.00;46.48
33404;BME280;19751;40.274;18.268;2023-07-22T07:36:24;100865.09;;;34.04;42.56
33404;BME280;19751;40.274;18.268;2023-07-22T07:38:49;100867.72;;;34.09;42.82
33404;BME280;19751;40.274;18.268;2023-07-22T07:41:15;100856.75;;;34.17;42.89
33404;BME280;19751;40.274;18.268;2023-07-22T07:43:41;100856.19;;;34.23;44.34
33404;BME280;19751;40.274;18.268;2023-07-22T07:46:28;100864.84;;;34.30;46.10
33404;BME280;19751;40.274;18.268;2023-07-22T07:49:00;100847.59;;;34.41;44.76
33404;BME280;19751;40.274;18.268;2023-07-22T07:51:26;100844.72;;;34.49;43.71
33404;BME280;19751;40.274;18.268;2023-07-22T07:53:53;100844.97;;;34.56;41.45
33404;BME280;19751;40.274;18.268;2023-07-22T07:56:19;100847.28;;;34.67;40.04
33404;BME280;19751;40.274;18.268;2023-07-22T07:58:47;100848.00;;;34.76;35.96
33404;BME280;19751;40.274;18.268;2023-07-22T08:01:13;100851.47;;;34.85;35.73
33404;BME280;19751;40.274;18.268;2023-07-22T08:03:40;100851.13;;;34.99;35.54
33404;BME280;19751;40.274;18.268;2023-07-22T08:06:07;100851.59;;;35.13;33.51
33404;BME280;19751;40.274;18.268;2023-07-22T08:08:33;100868.00;;;35.27;32.47
33404;BME280;19751;40.274;18.268;2023-07-22T08:11:05;100857.09;;;35.37;32.19
33404;BME280;19751;40.274;18.268;2023-07-22T08:13:30;100851.16;;;35.39;31.92
33404;BME280;19751;40.274;18.268;2023-07-22T08:15:57;100856.84;;;35.55;30.38
33404;BME280;19751;40.274;18.268;2023-07-22T08:18:24;100855.63;;;35.68;30.10
33404;BME280;19751;40.274;18.268;2023-07-22T08:20:51;100861.94;;;35.65;29.98
33404;BME280;19751;40.274;18.268;2023-07-22T08:23:17;100858.59;;;35.59;29.78
33404;BME280;19751;40.274;18.268;2023-07-22T08:25:43;100859.50;;;35.64;30.57
33404;BME280;19751;40.274;18.268;2023-07-22T08:28:08;100864.69;;;35.77;28.99
33404;BME280;19751;40.274;18.268;2023-07-22T08:30:34;100855.94;;;35.95;25.74
33404;BME280;19751;40.274;18.268;2023-07-22T08:33:00;100858.44;;;36.12;25.85
33404;BME280;19751;40.274;18.268;2023-07-22T08:35:26;100859.53;;;36.23;25.53
33404;BME280;19751;40.274;18.268;2023-07-22T08:37:51;100853.03;;;36.35;25.45
33404;BME280;19751;40.274;18.268;2023-07-22T08:40:17;100856.47;;;36.44;25.29
33404;BME280;19751;40.274;18.268;2023-07-22T08:42:45;100858.88;;;36.58;25.56
33404;BME280;19751;40.274;18.268;2023-07-22T08:45:13;100860.19;;;36.64;25.59
33404;BME280;19751;40.274;18.268;2023-07-22T08:47:47;100868.53;;;36.76;25.32
33404;BME280;19751;40.274;18.268;2023-07-22T08:50:18;100863.91;;;36.84;25.41
33404;BME280;19751;40.274;18.268;2023-07-22T08:52:44;100865.44;;;36.81;25.67
33404;BME280;19751;40.274;18.268;2023-07-22T08:55:10;100872.41;;;36.88;25.54
33404;BME280;19751;40.274;18.268;2023-07-22T08:57:36;100881.97;;;36.87;25.49
33404;BME280;19751;40.274;18.268;2023-07-22T09:00:04;100880.19;;;36.78;26.35
33404;BME280;19751;40.274;18.268;2023-07-22T09:02:33;100884.88;;;36.74;26.05
33404;BME280;19751;40.274;18.268;2023-07-22T09:05:00;100887.97;;;36.85;25.26
33404;BME280;19751;40.274;18.268;2023-07-22T09:07:25;100884.19;;;36.93;24.98
33404;BME280;19751;40.274;18.268;2023-07-22T09:09:52;100888.97;;;37.08;24.32
33404;BME280;19751;40.274;18.268;2023-07-22T09:12:18;100882.47;;;37.24;23.74
33404;BME280;19751;40.274;18.268;2023-07-22T09:14:45;100886.31;;;37.35;23.02
33404;BME280;19751;40.274;18.268;2023-07-22T09:17:10;100887.28;;;37.23;23.46
33404;BME280;19751;40.274;18.268;2023-07-22T09:19:36;100880.97;;;37.11;23.52
33404;BME280;19751;40.274;18.268;2023-07-22T09:22:02;100880.88;;;37.07;24.24
33404;BME280;19751;40.274;18.268;2023-07-22T09:24:27;100885.25;;;37.04;23.81
33404;BME280;19751;40.274;18.268;2023-07-22T09:26:53;100881.06;;;37.14;23.79
33404;BME280;19751;40.274;18.268;2023-07-22T09:29:36;100886.75;;;37.18;23.41
33404;BME280;19751;40.274;18.268;2023-07-22T09:32:01;100891.06;;;37.31;22.32
33404;BME280;19751;40.274;18.268;2023-07-22T09:34:28;100885.00;;;37.29;22.38
33404;BME280;19751;40.274;18.268;2023-07-22T09:36:56;100878.38;;;37.37;22.53
33404;BME280;19751;40.274;18.268;2023-07-22T09:39:22;100887.22;;;37.39;21.05
33404;BME280;19751;40.274;18.268;2023-07-22T09:41:48;100883.13;;;37.37;20.92
33404;BME280;19751;40.274;18.268;2023-07-22T09:44:14;100882.19;;;37.29;21.13
33404;BME280;19751;40.274;18.268;2023-07-22T09:46:40;100877.31;;;37.26;21.50
33404;BME280;19751;40.274;18.268;2023-07-22T09:49:08;100879.22;;;37.22;21.55
33404;BME280;19751;40.274;18.268;2023-07-22T09:51:40;100875.81;;;37.32;22.53
33404;BME280;19751;40.274;18.268;2023-07-22T09:54:06;100863.81;;;37.51;22.04
33404;BME280;19751;40.274;18.268;2023-07-22T09:56:42;100864.31;;;37.56;22.20
33404;BME280;19751;40.274;18.268;2023-07-22T09:59:09;100867.88;;;37.73;22.20
33404;BME280;19751;40.274;18.268;2023-07-22T10:01:37;100876.16;;;37.85;22.07
33404;BME280;19751;40.274;18.268;2023-07-22T10:04:04;100866.63;;;37.90;22.39
33404;BME280;19751;40.274;18.268;2023-07-22T10:06:31;100860.84;;;37.83;22.37
33404;BME280;19751;40.274;18.268;2023-07-22T10:09:03;100853.59;;;37.81;22.38
33404;BME280;19751;40.274;18.268;2023-07-22T10:11:33;100855.44;;;37.93;22.18
33404;BME280;19751;40.274;18.268;2023-07-22T10:13:59;100852.78;;;38.00;22.18
33404;BME280;19751;40.274;18.268;2023-07-22T10:16:27;100857.59;;;38.00;22.73
33404;BME280;19751;40.274;18.268;2023-07-22T10:18:54;100847.72;;;38.10;22.37
33404;BME280;19751;40.274;18.268;2023-07-22T10:21:20;100848.59;;;38.14;22.24
33404;BME280;19751;40.274;18.268;2023-07-22T10:23:47;100847.03;;;38.16;21.82
33404;BME280;19751;40.274;18.268;2023-07-22T10:26:15;100847.53;;;38.22;22.44
33404;BME280;19751;40.274;18.268;2023-07-22T10:28:43;100856.47;;;38.27;22.37
33404;BME280;19751;40.274;18.268;2023-07-22T10:31:09;100856.09;;;38.29;22.38
33404;BME280;19751;40.274;18.268;2023-07-22T10:33:34;100852.41;;;38.25;22.92
33404;BME280;19751;40.274;18.268;2023-07-22T10:36:14;100852.09;;;38.30;21.98
33404;BME280;19751;40.274;18.268;2023-07-22T10:38:42;100865.13;;;38.38;21.59
33404;BME280;19751;40.274;18.268;2023-07-22T10:41:15;100856.63;;;38.61;21.92
33404;BME280;19751;40.274;18.268;2023-07-22T10:44:04;100856.16;;;38.78;21.37
33404;BME280;19751;40.274;18.268;2023-07-22T10:46:35;100856.06;;;38.75;21.55
33404;BME280;19751;40.274;18.268;2023-07-22T10:49:15;100851.63;;;38.74;21.57
33404;BME280;19751;40.274;18.268;2023-07-22T10:51:45;100850.78;;;38.70;21.49
33404;BME280;19751;40.274;18.268;2023-07-22T10:54:13;100849.34;;;38.79;20.75
33404;BME280;19751;40.274;18.268;2023-07-22T10:56:48;100853.81;;;38.84;20.17
33404;BME280;19751;40.274;18.268;2023-07-22T10:59:13;100852.00;;;38.72;20.04
33404;BME280;19751;40.274;18.268;2023-07-22T11:01:40;100849.47;;;38.64;20.29
33404;BME280;19751;40.274;18.268;2023-07-22T11:12:39;100855.00;;;39.10;20.19
33404;BME280;19751;40.274;18.268;2023-07-22T11:14:50;100853.72;;;39.03;20.41
33404;BME280;19751;40.274;18.268;2023-07-22T11:17:18;100850.94;;;39.07;21.23
33404;BME280;19751;40.274;18.268;2023-07-22T11:19:52;100855.00;;;39.10;21.65
33404;BME280;19751;40.274;18.268;2023-07-22T11:22:17;100859.66;;;39.25;20.43
33404;BME280;19751;40.274;18.268;2023-07-22T11:24:43;100856.22;;;39.39;20.05
33404;BME280;19751;40.274;18.268;2023-07-22T11:27:09;100855.50;;;39.45;20.29
33404;BME280;19751;40.274;18.268;2023-07-22T11:29:35;100849.88;;;39.45;20.61
33404;BME280;19751;40.274;18.268;2023-07-22T11:32:02;100849.13;;;39.52;20.73
33404;BME280;19751;40.274;18.268;2023-07-22T11:34:28;100849.22;;;39.59;19.99
33404;BME280;19751;40.274;18.268;2023-07-22T11:36:54;100836.78;;;39.64;20.29
33404;BME280;19751;40.274;18.268;2023-07-22T11:39:22;100850.13;;;39.67;20.45
33404;BME280;19751;40.274;18.268;2023-07-22T11:41:49;100848.50;;;39.66;20.71
33404;BME280;19751;40.274;18.268;2023-07-22T11:44:18;100842.63;;;39.78;19.92
33404;BME280;19751;40.274;18.268;2023-07-22T11:46:56;100844.66;;;39.81;19.14
33404;BME280;19751;40.274;18.268;2023-07-22T11:49:39;100850.56;;;39.69;19.62
33404;BME280;19751;40.274;18.268;2023-07-22T11:52:08;100853.59;;;39.53;19.92
33404;BME280;19751;40.274;18.268;2023-07-22T11:54:35;100856.41;;;39.53;20.59
33404;BME280;19751;40.274;18.268;2023-07-22T11:57:18;100854.09;;;39.62;20.98
33404;BME280;19751;40.274;18.268;2023-07-22T12:00:03;100849.41;;;39.73;20.79
33404;BME280;19751;40.274;18.268;2023-07-22T12:02:35;100861.81;;;39.69;20.82
33404;BME280;19751;40.274;18.268;2023-07-22T12:05:03;100846.31;;;39.52;21.42
33404;BME280;19751;40.274;18.268;2023-07-22T12:07:32;100850.63;;;39.42;21.14
33404;BME280;19751;40.274;18.268;2023-07-22T12:10:00;100846.59;;;39.43;21.41
33404;BME280;19751;40.274;18.268;2023-07-22T12:12:33;100850.03;;;39.60;21.61
33404;BME280;19751;40.274;18.268;2023-07-22T12:15:13;100848.66;;;39.80;20.86
33404;BME280;19751;40.274;18.268;2023-07-22T12:18:15;100847.47;;;39.81;20.77
33404;BME280;19751;40.274;18.268;2023-07-22T12:20:41;100843.97;;;39.91;20.31
33404;BME280;19751;40.274;18.268;2023-07-22T12:23:06;100845.69;;;40.03;20.52
33404;BME280;19751;40.274;18.268;2023-07-22T12:25:32;100834.38;;;39.99;19.99
33404;BME280;19751;40.274;18.268;2023-07-22T12:27:57;100836.06;;;40.08;19.04
33404;BME280;19751;40.274;18.268;2023-07-22T12:30:23;100834.59;;;40.21;18.73
33404;BME280;19751;40.274;18.268;2023-07-22T12:32:49;100844.38;;;40.34;18.98
33404;BME280;19751;40.274;18.268;2023-07-22T12:35:14;100844.44;;;40.41;18.67
33404;BME280;19751;40.274;18.268;2023-07-22T12:37:40;100840.94;;;40.55;18.11
33404;BME280;19751;40.274;18.268;2023-07-22T12:40:06;100839.38;;;40.58;18.26
33404;BME280;19751;40.274;18.268;2023-07-22T12:42:34;100840.03;;;40.47;18.45